sensor_id;sensor_type;location;lat;lon;timestamp;pressure;altitude;pressure_sealevel;temperature;humidity
27040;BME280;14589;51.578;7.306;2024-03-22T00:01:53;101606.72;;;10.39;97.86
27040;BME280;14589;51.578;7.306;2024-03-22T00:04:25;101605.25;;;10.35;97.79
27040;BME280;14589;51.578;7.306;2024-03-22T00:06:56;101613.28;;;10.36;97.88
27040;BME280;14589;51.578;7.306;2024-03-22T00:09:26;101606.13;;;10.35;98.28
27040;BME280;14589;51.578;7.306;2024-03-22T00:11:57;101602.66;;;10.33;98.53
27040;BME280;14589;51.578;7.306;2024-03-22T00:14:27;101593.06;;;10.29;99.19
27040;BME280;14589;51.578;7.306;2024-03-22T00:16:58;101585.81;;;10.30;99.34
27040;BME280;14589;51.578;7.306;2024-03-22T00:19:28;101588.50;;;10.30;99.59
27040;BME280;14589;51.578;7.306;2024-03-22T00:21:58;101586.66;;;10.30;99.48
27040;BME280;14589;51.578;7.306;2024-03-22T00:24:29;101585.66;;;10.31;99.43
27040;BME280;14589;51.578;7.306;2024-03-22T00:26:59;101581.59;;;10.26;100.00
27040;BME280;14589;51.578;7.306;2024-03-22T00:29:29;101565.84;;;10.20;100.00
27040;BME280;14589;51.578;7.306;2024-03-22T00:32:00;101572.59;;;10.25;100.00
27040;BME280;14589;51.578;7.306;2024-03-22T00:34:30;101577.41;;;10.33;100.00
27040;BME280;14589;51.578;7.306;2024-03-22T00:37:01;101568.78;;;10.28;100.00
27040;BME280;14589;51.578;7.306;2024-03-22T00:39:31;101561.53;;;10.28;100.00
27040;BME280;14589;51.578;7.306;2024-03-22T00:42:01;101568.53;;;10.31;100.00
27040;BME280;14589;51.578;7.306;2024-03-22T00:44:32;101555.81;;;10.31;100.00
27040;BME280;14589;51.578;7.306;2024-03-22T00:47:02;101542.16;;;10.33;100.00
27040;BME280;14589;51.578;7.306;2024-03-22T00:49:34;101552.88;;;10.34;100.00
27040;BME280;14589;51.578;7.306;2024-03-22T00:52:04;101538.06;;;10.38;100.00
27040;BME280;14589;51.578;7.306;2024-03-22T00:54:35;101538.94;;;10.39;100.00
27040;BME280;14589;51.578;7.306;2024-03-22T00:57:05;101524.50;;;10.38;100.00
27040;BME280;14589;51.578;7.306;2024-03-22T00:59:35;101515.16;;;10.42;100.00
27040;BME280;14589;51.578;7.306;2024-03-22T01:02:06;101514.63;;;10.48;100.00
27040;BME280;14589;51.578;7.306;2024-03-22T01:04:36;101510.66;;;10.52;100.00
27040;BME280;14589;51.578;7.306;2024-03-22T01:07:07;101500.28;;;10.58;100.00
27040;BME280;14589;51.578;7.306;2024-03-22T01:09:37;101509.28;;;10.58;100.00
27040;BME280;14589;51.578;7.306;2024-03-22T01:12:07;101504.31;;;10.63;100.00
27040;BME280;14589;51.578;7.306;2024-03-22T01:14:38;101505.31;;;10.62;100.00
27040;BME280;14589;51.578;7.306;2024-03-22T01:17:08;101507.50;;;10.68;100.00
27040;BME280;14589;51.578;7.306;2024-03-22T01:19:38;101493.06;;;10.68;100.00
27040;BME280;14589;51.578;7.306;2024-03-22T01:22:09;101483.94;;;10.69;100.00
27040;BME280;14589;51.578;7.306;2024-03-22T01:24:39;101478.88;;;10.75;100.00
27040;BME280;14589;51.578;7.306;2024-03-22T01:27:09;101483.59;;;10.73;100.00
27040;BME280;14589;51.578;7.306;2024-03-22T01:29:40;101487.00;;;10.75;100.00
27040;BME280;14589;51.578;7.306;2024-03-22T01:32:10;101479.59;;;10.77;100.00
27040;BME280;14589;51.578;7.306;2024-03-22T01:34:41;101466.78;;;10.79;100.00
27040;BME280;14589;51.578;7.306;2024-03-22T01:37:11;101477.22;;;10.84;100.00
27040;BME280;14589;51.578;7.306;2024-03-22T01:39:42;101475.97;;;10.88;100.00
27040;BME280;14589;51.578;7.306;2024-03-22T01:42:12;101455.13;;;10.88;100.00
27040;BME280;14589;51.578;7.306;2024-03-22T01:44:42;101450.41;;;10.90;100.00
27040;BME280;14589;51.578;7.306;2024-03-22T01:47:13;101437.03;;;10.99;100.00
27040;BME280;14589;51.578;7.306;2024-03-22T01:49:43;101435.34;;;10.98;100.00
27040;BME280;14589;51.578;7.306;2024-03-22T01:52:14;101422.88;;;10.95;100.00
27040;BME280;14589;51.578;7.306;2024-03-22T01:54:44;101421.47;;;11.01;100.00
27040;BME280;14589;51.578;7.306;2024-03-22T01:57:15;101417.19;;;10.98;100.00
27040;BME280;14589;51.578;7.306;2024-03-22T01:59:47;101411.06;;;11.06;100.00
27040;BME280;14589;51.578;7.306;2024-03-22T02:02:19;101411.06;;;11.06;100.00
27040;BME280;14589;51.578;7.306;2024-03-22T02:04:51;101409.09;;;11.08;100.00
27040;BME280;14589;51.578;7.306;2024-03-22T02:07:21;101407.66;;;11.04;100.00
27040;BME280;14589;51.578;7.306;2024-03-22T02:09:51;101415.69;;;11.15;100.00
27040;BME280;14589;51.578;7.306;2024-03-22T02:12:22;101397.97;;;11.11;100.00
27040;BME280;14589;51.578;7.306;2024-03-22T02:14:52;101409.28;;;11.16;100.00
27040;BME280;14589;51.578;7.306;2024-03-22T02:17:23;101406.28;;;11.19;100.00
27040;BME280;14589;51.578;7.306;2024-03-22T02:19:53;101394.84;;;11.15;100.00
27040;BME280;14589;51.578;7.306;2024-03-22T02:22:23;101389.41;;;11.15;100.00
27040;BME280;14589;51.578;7.306;2024-03-22T02:24:54;101385.44;;;11.19;100.00
27040;BME280;14589;51.578;7.306;2024-03-22T02:27:25;101388.00;;;11.21;100.00
27040;BME280;14589;51.578;7.306;2024-03-22T02:29:55;101382.72;;;11.19;100.00
27040;BME280;14589;51.578;7.306;2024-03-22T02:32:26;101383.75;;;11.28;100.00
27040;BME280;14589;51.578;7.306;2024-03-22T02:34:56;101386.03;;;11.23;100.00
27040;BME280;14589;51.578;7.306;2024-03-22T02:37:27;101390.44;;;11.24;100.00
27040;BME280;14589;51.578;7.306;2024-03-22T02:39:58;101378.00;;;11.21;100.00
27040;BME280;14589;51.578;7.306;2024-03-22T02:42:28;101380.59;;;11.23;100.00
27040;BME280;14589;51.578;7.306;2024-03-22T02:44:59;101382.16;;;11.25;100.00
27040;BME280;14589;51.578;7.306;2024-03-22T02:47:29;101377.72;;;11.24;100.00
27040;BME280;14589;51.578;7.306;2024-03-22T02:49:59;101383.03;;;11.26;100.00
27040;BME280;14589;51.578;7.306;2024-03-22T02:52:30;101372.44;;;11.23;100.00
27040;BME280;14589;51.578;7.306;2024-03-22T02:55:00;101374.03;;;11.25;100.00
27040;BME280;14589;51.578;7.306;2024-03-22T02:57:30;101369.19;;;11.29;100.00
27040;BME280;14589;51.578;7.306;2024-03-22T03:00:01;101360.56;;;11.24;100.00
27040;BME280;14589;51.578;7.306;2024-03-22T03:02:31;101342.59;;;11.23;100.00
27040;BME280;14589;51.578;7.306;2024-03-22T03:05:02;101337.16;;;11.23;100.00
27040;BME280;14589;51.578;7.306;2024-03-22T03:07:32;101329.03;;;11.23;100.00
27040;BME280;14589;51.578;7.306;2024-03-22T03:10:03;101340.44;;;11.26;100.00
27040;BME280;14589;51.578;7.306;2024-03-22T03:12:33;101337.16;;;11.23;100.00
27040;BME280;14589;51.578;7.306;2024-03-22T03:15:04;101347.28;;;11.21;100.00
27040;BME280;14589;51.578;7.306;2024-03-22T03:17:34;101344.69;;;11.19;100.00
27040;BME280;14589;51.578;7.306;2024-03-22T03:20:05;101348.28;;;11.20;100.00
27040;BME280;14589;51.578;7.306;2024-03-22T03:22:40;101339.41;;;11.18;100.00
27040;BME280;14589;51.578;7.306;2024-03-22T03:25:10;101342.72;;;11.21;100.00
27040;BME280;14589;51.578;7.306;2024-03-22T03:27:41;101337.72;;;11.17;100.00
27040;BME280;14589;51.578;7.306;2024-03-22T03:30:11;101334.72;;;11.20;100.00
27040;BME280;14589;51.578;7.306;2024-03-22T03:32:42;101323.13;;;11.18;100.00
27040;BME280;14589;51.578;7.306;2024-03-22T03:35:12;101322.69;;;11.13;100.00
27040;BME280;14589;51.578;7.306;2024-03-22T03:37:42;101326.00;;;11.16;100.00
27040;BME280;14589;51.578;7.306;2024-03-22T03:40:13;101316.13;;;11.15;100.00
27040;BME280;14589;51.578;7.306;2024-03-22T03:42:43;101314.28;;;11.16;100.00
27040;BME280;14589;51.578;7.306;2024-03-22T03:45:13;101301.69;;;11.15;100.00
27040;BME280;14589;51.578;7.306;2024-03-22T03:47:44;101306.38;;;11.13;100.00
27040;BME280;14589;51.578;7.306;2024-03-22T03:50:14;101291.38;;;11.09;100.00
27040;BME280;14589;51.578;7.306;2024-03-22T03:52:45;101287.69;;;11.10;100.00
27040;BME280;14589;51.578;7.306;2024-03-22T03:55:15;101292.41;;;11.17;100.00
27040;BME280;14589;51.578;7.306;2024-03-22T03:57:46;101279.38;;;11.11;100.00
27040;BME280;14589;51.578;7.306;2024-03-22T04:00:17;101274.25;;;11.08;100.00
27040;BME280;14589;51.578;7.306;2024-03-22T04:02:49;101276.22;;;11.06;100.00
27040;BME280;14589;51.578;7.306;2024-03-22T04:05:20;101272.53;;;11.07;100.00
27040;BME280;14589;51.578;7.306;2024-03-22T04:07:51;101259.50;;;11.01;100.00
27040;BME280;14589;51.578;7.306;2024-03-22T04:10:21;101251.97;;;11.05;100.00
27040;BME280;14589;51.578;7.306;2024-03-22T04:12:51;101241.38;;;11.02;100.00
27040;BME280;14589;51.578;7.306;2024-03-22T04:15:22;101245.94;;;11.01;100.00
27040;BME280;14589;51.578;7.306;2024-03-22T04:17:52;101245.69;;;11.04;100.00
27040;BME280;14589;51.578;7.306;2024-03-22T04:20:23;101243.81;;;11.05;100.00
27040;BME280;14589;51.578;7.306;2024-03-22T04:22:53;101236.25;;;11.08;100.00
27040;BME280;14589;51.578;7.306;2024-03-22T04:25:24;101224.53;;;11.08;100.00
27040;BME280;14589;51.578;7.306;2024-03-22T04:27:54;101231.09;;;11.05;100.00
27040;BME280;14589;51.578;7.306;2024-03-22T04:30:24;101231.94;;;11.06;100.00
27040;BME280;14589;51.578;7.306;2024-03-22T04:32:55;101219.53;;;11.13;100.00
27040;BME280;14589;51.578;7.306;2024-03-22T04:35:25;101228.41;;;11.15;100.00
27040;BME280;14589;51.578;7.306;2024-03-22T04:37:55;101218.84;;;11.11;100.00
27040;BME280;14589;51.578;7.306;2024-03-22T04:40:26;101214.69;;;11.16;100.00
27040;BME280;14589;51.578;7.306;2024-03-22T04:42:56;101206.09;;;11.11;100.00
27040;BME280;14589;51.578;7.306;2024-03-22T04:45:27;101210.13;;;11.17;100.00
27040;BME280;14589;51.578;7.306;2024-03-22T04:47:57;101210.97;;;11.17;100.00
27040;BME280;14589;51.578;7.306;2024-03-22T04:50:27;101209.09;;;11.18;100.00
27040;BME280;14589;51.578;7.306;2024-03-22T04:52:58;101206.25;;;11.19;100.00
27040;BME280;14589;51.578;7.306;2024-03-22T04:55:28;101203.69;;;11.18;100.00
27040;BME280;14589;51.578;7.306;2024-03-22T04:57:59;101217.97;;;11.20;100.00
27040;BME280;14589;51.578;7.306;2024-03-22T05:00:29;101202.81;;;11.17;100.00
27040;BME280;14589;51.578;7.306;2024-03-22T05:03:00;101210.25;;;11.15;100.00
27040;BME280;14589;51.578;7.306;2024-03-22T05:05:30;101196.25;;;11.10;100.00
27040;BME280;14589;51.578;7.306;2024-03-22T05:08:01;101202.97;;;11.16;100.00
27040;BME280;14589;51.578;7.306;2024-03-22T05:10:32;101207.41;;;11.17;100.00
27040;BME280;14589;51.578;7.306;2024-03-22T05:13:02;101192.53;;;11.11;100.00
27040;BME280;14589;51.578;7.306;2024-03-22T05:15:33;101193.38;;;11.12;100.00
27040;BME280;14589;51.578;7.306;2024-03-22T05:18:03;101197.81;;;11.13;100.00
27040;BME280;14589;51.578;7.306;2024-03-22T05:20:34;101192.81;;;11.08;100.00
27040;BME280;14589;51.578;7.306;2024-03-22T05:23:05;101198.69;;;11.13;100.00
27040;BME280;14589;51.578;7.306;2024-03-22T05:25:35;101195.41;;;11.10;100.00
27040;BME280;14589;51.578;7.306;2024-03-22T05:28:05;101193.69;;;11.09;100.00
27040;BME280;14589;51.578;7.306;2024-03-22T05:30:36;101202.00;;;11.17;100.00
27040;BME280;14589;51.578;7.306;2024-03-22T05:33:07;101190.09;;;11.08;100.00
27040;BME280;14589;51.578;7.306;2024-03-22T05:35:37;101200.28;;;11.16;100.00
27040;BME280;14589;51.578;7.306;2024-03-22T05:38:08;101202.81;;;11.17;100.00
27040;BME280;14589;51.578;7.306;2024-03-22T05:40:38;101195.81;;;11.24;100.00
27040;BME280;14589;51.578;7.306;2024-03-22T05:43:09;101189.97;;;11.19;99.96
27040;BME280;14589;51.578;7.306;2024-03-22T05:45:39;101182.41;;;11.23;100.00
27040;BME280;14589;51.578;7.306;2024-03-22T05:48:09;101187.13;;;11.30;99.98
27040;BME280;14589;51.578;7.306;2024-03-22T05:50:40;101195.13;;;11.32;99.76
27040;BME280;14589;51.578;7.306;2024-03-22T05:53:11;101191.00;;;11.28;100.00
27040;BME280;14589;51.578;7.306;2024-03-22T05:55:42;101186.72;;;11.35;98.58
27040;BME280;14589;51.578;7.306;2024-03-22T05:58:12;101187.41;;;11.37;98.46
27040;BME280;14589;51.578;7.306;2024-03-22T06:00:42;101175.69;;;11.36;98.52
27040;BME280;14589;51.578;7.306;2024-03-22T06:03:13;101175.00;;;11.34;98.18
27040;BME280;14589;51.578;7.306;2024-03-22T06:05:43;101179.13;;;11.39;98.32
27040;BME280;14589;51.578;7.306;2024-03-22T06:08:14;101182.25;;;11.44;97.98
27040;BME280;14589;51.578;7.306;2024-03-22T06:10:49;101175.69;;;11.46;97.68
27040;BME280;14589;51.578;7.306;2024-03-22T06:13:19;101186.56;;;11.46;97.79
27040;BME280;14589;51.578;7.306;2024-03-22T06:15:49;101179.81;;;11.50;96.89
27040;BME280;14589;51.578;7.306;2024-03-22T06:18:20;101181.53;;;11.61;96.17
27040;BME280;14589;51.578;7.306;2024-03-22T06:20:50;101175.53;;;11.57;95.87
27040;BME280;14589;51.578;7.306;2024-03-22T06:23:21;101173.53;;;11.59;96.92
27040;BME280;14589;51.578;7.306;2024-03-22T06:25:53;101163.09;;;11.64;95.97
27040;BME280;14589;51.578;7.306;2024-03-22T06:28:23;101169.53;;;11.63;95.72
27040;BME280;14589;51.578;7.306;2024-03-22T06:30:54;101162.50;;;11.70;95.45
27040;BME280;14589;51.578;7.306;2024-03-22T06:33:24;101158.22;;;11.68;95.36
27040;BME280;14589;51.578;7.306;2024-03-22T06:35:54;101164.69;;;11.77;94.55
27040;BME280;14589;51.578;7.306;2024-03-22T06:38:25;101159.53;;;11.83;94.03
27040;BME280;14589;51.578;7.306;2024-03-22T06:40:55;101163.38;;;11.90;93.15
27040;BME280;14589;51.578;7.306;2024-03-22T06:43:26;101154.63;;;11.87;93.57
27040;BME280;14589;51.578;7.306;2024-03-22T06:45:56;101164.22;;;11.91;92.86
27040;BME280;14589;51.578;7.306;2024-03-22T06:48:26;101143.63;;;11.88;92.98
27040;BME280;14589;51.578;7.306;2024-03-22T06:50:57;101160.94;;;11.97;92.59
27040;BME280;14589;51.578;7.306;2024-03-22T06:53:30;101146.31;;;11.98;92.28
27040;BME280;14589;51.578;7.306;2024-03-22T06:56:00;101151.59;;;11.99;92.28
27040;BME280;14589;51.578;7.306;2024-03-22T06:58:31;101151.16;;;12.04;92.09
27040;BME280;14589;51.578;7.306;2024-03-22T07:01:01;101166.63;;;12.03;92.36
27040;BME280;14589;51.578;7.306;2024-03-22T07:03:32;101160.75;;;12.08;91.37
27040;BME280;14589;51.578;7.306;2024-03-22T07:06:02;101151.00;;;12.15;91.14
27040;BME280;14589;51.578;7.306;2024-03-22T07:08:33;101143.13;;;12.12;90.84
27040;BME280;14589;51.578;7.306;2024-03-22T07:11:07;101151.09;;;12.23;90.11
27040;BME280;14589;51.578;7.306;2024-03-22T07:13:38;101147.09;;;12.27;90.17
27040;BME280;14589;51.578;7.306;2024-03-22T07:16:09;101158.06;;;12.35;89.62
27040;BME280;14589;51.578;7.306;2024-03-22T07:18:39;101168.94;;;12.35;90.13
27040;BME280;14589;51.578;7.306;2024-03-22T07:21:09;101159.16;;;12.42;89.52
27040;BME280;14589;51.578;7.306;2024-03-22T07:23:40;101175.19;;;12.45;89.96
27040;BME280;14589;51.578;7.306;2024-03-22T07:26:10;101159.81;;;12.54;89.58
27040;BME280;14589;51.578;7.306;2024-03-22T07:28:41;101163.97;;;12.58;88.54
27040;BME280;14589;51.578;7.306;2024-03-22T07:31:11;101159.94;;;12.62;89.46
27040;BME280;14589;51.578;7.306;2024-03-22T07:33:42;101155.28;;;12.72;87.90
27040;BME280;14589;51.578;7.306;2024-03-22T07:36:15;101154.25;;;12.83;87.45
27040;BME280;14589;51.578;7.306;2024-03-22T07:38:46;101138.97;;;12.90;86.78
27040;BME280;14589;51.578;7.306;2024-03-22T07:41:16;101139.41;;;12.95;87.50
27040;BME280;14589;51.578;7.306;2024-03-22T07:43:47;101139.16;;;13.06;86.12
27040;BME280;14589;51.578;7.306;2024-03-22T07:46:17;101136.25;;;13.17;84.96
27040;BME280;14589;51.578;7.306;2024-03-22T07:48:48;101129.81;;;13.09;86.03
27040;BME280;14589;51.578;7.306;2024-03-22T07:51:19;101131.63;;;13.00;84.33
27040;BME280;14589;51.578;7.306;2024-03-22T07:53:50;101140.69;;;13.18;83.84
27040;BME280;14589;51.578;7.306;2024-03-22T07:56:22;101131.56;;;13.27;83.56
27040;BME280;14589;51.578;7.306;2024-03-22T07:58:52;101139.34;;;13.22;82.63
27040;BME280;14589;51.578;7.306;2024-03-22T08:01:23;101126.66;;;13.31;81.25
27040;BME280;14589;51.578;7.306;2024-03-22T08:03:53;101129.91;;;13.34;81.33
27040;BME280;14589;51.578;7.306;2024-03-22T08:06:24;101139.56;;;13.47;81.14
27040;BME280;14589;51.578;7.306;2024-03-22T08:08:54;101136.53;;;13.50;79.33
27040;BME280;14589;51.578;7.306;2024-03-22T08:11:26;101138.16;;;13.60;79.41
27040;BME280;14589;51.578;7.306;2024-03-22T08:13:57;101134.25;;;13.63;78.90
27040;BME280;14589;51.578;7.306;2024-03-22T08:16:32;101142.66;;;13.69;78.43
27040;BME280;14589;51.578;7.306;2024-03-22T08:19:02;101150.19;;;13.75;78.01
27040;BME280;14589;51.578;7.306;2024-03-22T08:21:33;101147.69;;;13.82;76.97
27040;BME280;14589;51.578;7.306;2024-03-22T08:24:04;101133.44;;;13.88;74.83
27040;BME280;14589;51.578;7.306;2024-03-22T08:26:34;101129.19;;;13.68;75.62
27040;BME280;14589;51.578;7.306;2024-03-22T08:29:04;101121.47;;;13.89;73.98
27040;BME280;14589;51.578;7.306;2024-03-22T08:31:35;101134.66;;;13.94;73.27
27040;BME280;14589;51.578;7.306;2024-03-22T08:34:05;101145.06;;;13.98;73.32
27040;BME280;14589;51.578;7.306;2024-03-22T08:36:36;101135.53;;;14.02;71.65
27040;BME280;14589;51.578;7.306;2024-03-22T08:39:06;101131.94;;;14.02;72.49
27040;BME280;14589;51.578;7.306;2024-03-22T08:41:40;101125.63;;;13.93;71.50
27040;BME280;14589;51.578;7.306;2024-03-22T08:44:10;101117.91;;;13.89;70.33
27040;BME280;14589;51.578;7.306;2024-03-22T08:46:41;101117.00;;;14.06;69.23
27040;BME280;14589;51.578;7.306;2024-03-22T08:49:11;101108.53;;;14.17;68.53
27040;BME280;14589;51.578;7.306;2024-03-22T08:51:42;101114.75;;;14.35;68.24
27040;BME280;14589;51.578;7.306;2024-03-22T08:54:12;101103.38;;;14.40;66.48
27040;BME280;14589;51.578;7.306;2024-03-22T08:56:43;101108.53;;;14.51;66.27
27040;BME280;14589;51.578;7.306;2024-03-22T08:59:13;101103.84;;;14.35;65.67
27040;BME280;14589;51.578;7.306;2024-03-22T09:01:44;101111.16;;;14.35;65.27
27040;BME280;14589;51.578;7.306;2024-03-22T09:04:14;101104.69;;;14.36;64.22
27040;BME280;14589;51.578;7.306;2024-03-22T09:06:45;101100.41;;;14.33;65.10
27040;BME280;14589;51.578;7.306;2024-03-22T09:09:17;101104.13;;;14.58;64.10
27040;BME280;14589;51.578;7.306;2024-03-22T09:11:47;101100.06;;;14.62;62.52
27040;BME280;14589;51.578;7.306;2024-03-22T09:14:18;101087.81;;;14.74;61.80
27040;BME280;14589;51.578;7.306;2024-03-22T09:16:48;101100.13;;;14.86;62.38
27040;BME280;14589;51.578;7.306;2024-03-22T09:19:18;101089.91;;;15.13;61.18
27040;BME280;14589;51.578;7.306;2024-03-22T09:21:49;101090.44;;;15.16;60.55
27040;BME280;14589;51.578;7.306;2024-03-22T09:24:19;101090.44;;;15.41;61.30
27040;BME280;14589;51.578;7.306;2024-03-22T09:26:50;101087.34;;;15.52;60.95
27040;BME280;14589;51.578;7.306;2024-03-22T09:29:20;101087.53;;;15.26;61.78
27040;BME280;14589;51.578;7.306;2024-03-22T09:31:51;101077.97;;;15.30;60.93
27040;BME280;14589;51.578;7.306;2024-03-22T09:34:21;101068.38;;;15.50;61.04
27040;BME280;14589;51.578;7.306;2024-03-22T09:36:51;101083.63;;;15.53;61.21
27040;BME280;14589;51.578;7.306;2024-03-22T09:39:22;101079.13;;;15.76;60.71
27040;BME280;14589;51.578;7.306;2024-03-22T09:41:56;101069.75;;;15.70;60.56
27040;BME280;14589;51.578;7.306;2024-03-22T09:44:27;101078.59;;;15.97;59.44
27040;BME280;14589;51.578;7.306;2024-03-22T09:47:00;101064.59;;;15.75;59.96
27040;BME280;14589;51.578;7.306;2024-03-22T09:49:30;101066.50;;;15.51;61.67
27040;BME280;14589;51.578;7.306;2024-03-22T09:52:02;101070.78;;;15.77;60.68
27040;BME280;14589;51.578;7.306;2024-03-22T09:54:32;101067.72;;;15.64;61.53
27040;BME280;14589;51.578;7.306;2024-03-22T09:57:03;101066.50;;;15.75;60.85
27040;BME280;14589;51.578;7.306;2024-03-22T09:59:33;101064.78;;;15.82;60.40
27040;BME280;14589;51.578;7.306;2024-03-22T10:02:04;101050.22;;;15.90;58.98
27040;BME280;14589;51.578;7.306;2024-03-22T10:04:41;101061.59;;;15.54;61.27
27040;BME280;14589;51.578;7.306;2024-03-22T10:07:11;101053.84;;;15.74;60.75
27040;BME280;14589;51.578;7.306;2024-03-22T10:09:44;101046.47;;;15.83;60.52
27040;BME280;14589;51.578;7.306;2024-03-22T10:12:16;101037.13;;;15.45;60.90
27040;BME280;14589;51.578;7.306;2024-03-22T10:14:46;101036.72;;;15.80;60.65
27040;BME280;14589;51.578;7.306;2024-03-22T10:17:17;101025.13;;;15.78;60.62
27040;BME280;14589;51.578;7.306;2024-03-22T10:19:48;101044.66;;;16.14;59.82
27040;BME280;14589;51.578;7.306;2024-03-22T10:22:20;101028.50;;;15.88;60.62
27040;BME280;14589;51.578;7.306;2024-03-22T10:24:51;101024.81;;;16.20;60.03
27040;BME280;14589;51.578;7.306;2024-03-22T10:27:22;101015.75;;;16.50;59.95
27040;BME280;14589;51.578;7.306;2024-03-22T10:29:52;101020.06;;;16.45;58.45
27040;BME280;14589;51.578;7.306;2024-03-22T10:32:23;101016.16;;;16.93;56.71
27040;BME280;14589;51.578;7.306;2024-03-22T10:34:54;101021.22;;;17.04;57.67
27040;BME280;14589;51.578;7.306;2024-03-22T10:37:25;101018.97;;;17.08;57.78
27040;BME280;14589;51.578;7.306;2024-03-22T10:39:56;101013.91;;;17.19;55.98
27040;BME280;14589;51.578;7.306;2024-03-22T10:42:28;101005.31;;;16.99;56.44
27040;BME280;14589;51.578;7.306;2024-03-22T10:44:59;101011.72;;;16.92;56.24
27040;BME280;14589;51.578;7.306;2024-03-22T10:47:31;101008.56;;;17.03;56.73
27040;BME280;14589;51.578;7.306;2024-03-22T10:50:05;101008.56;;;16.49;57.61
27040;BME280;14589;51.578;7.306;2024-03-22T10:52:41;101011.25;;;16.57;58.26
27040;BME280;14589;51.578;7.306;2024-03-22T10:55:23;100997.25;;;16.83;57.33
27040;BME280;14589;51.578;7.306;2024-03-22T10:57:55;100993.00;;;16.19;59.05
27040;BME280;14589;51.578;7.306;2024-03-22T11:00:32;100988.41;;;16.73;57.66
27040;BME280;14589;51.578;7.306;2024-03-22T11:03:04;100986.47;;;16.28;59.61
27040;BME280;14589;51.578;7.306;2024-03-22T11:05:34;100995.59;;;16.97;58.28
27040;BME280;14589;51.578;7.306;2024-03-22T11:08:31;100994.13;;;16.86;59.42
27040;BME280;14589;51.578;7.306;2024-03-22T11:11:11;100988.72;;;17.16;58.96
27040;BME280;14589;51.578;7.306;2024-03-22T11:13:41;100986.63;;;16.80;58.54
27040;BME280;14589;51.578;7.306;2024-03-22T11:16:13;100989.78;;;17.15;58.79
27040;BME280;14589;51.578;7.306;2024-03-22T11:18:44;100987.91;;;17.15;59.47
27040;BME280;14589;51.578;7.306;2024-03-22T11:21:14;100972.19;;;17.61;57.04
27040;BME280;14589;51.578;7.306;2024-03-22T11:23:45;100965.66;;;18.06;55.47
27040;BME280;14589;51.578;7.306;2024-03-22T11:26:16;100956.28;;;17.57;55.81
27040;BME280;14589;51.578;7.306;2024-03-22T11:28:46;100969.66;;;17.74;55.81
27040;BME280;14589;51.578;7.306;2024-03-22T11:31:17;100975.63;;;17.63;57.96
27040;BME280;14589;51.578;7.306;2024-03-22T11:33:48;100977.75;;;17.01;58.99
27040;BME280;14589;51.578;7.306;2024-03-22T11:36:19;100963.06;;;16.94;58.18
27040;BME280;14589;51.578;7.306;2024-03-22T11:38:50;100964.63;;;16.43;61.20
27040;BME280;14589;51.578;7.306;2024-03-22T11:41:26;100985.81;;;16.18;63.33
27040;BME280;14589;51.578;7.306;2024-03-22T11:43:58;100973.66;;;15.82;64.91
27040;BME280;14589;51.578;7.306;2024-03-22T11:46:30;100976.00;;;15.93;64.19
27040;BME280;14589;51.578;7.306;2024-03-22T11:49:01;100980.81;;;15.91;65.35
27040;BME280;14589;51.578;7.306;2024-03-22T11:51:32;100977.41;;;15.81;65.85
27040;BME280;14589;51.578;7.306;2024-03-22T11:54:06;100977.00;;;15.45;67.36
27040;BME280;14589;51.578;7.306;2024-03-22T11:56:40;100974.75;;;15.64;66.38
27040;BME280;14589;51.578;7.306;2024-03-22T11:59:10;100980.91;;;15.66;67.16
27040;BME280;14589;51.578;7.306;2024-03-22T12:01:41;100975.47;;;15.58;67.34
27040;BME280;14589;51.578;7.306;2024-03-22T12:04:11;100980.44;;;15.55;67.50
27040;BME280;14589;51.578;7.306;2024-03-22T12:06:45;100976.47;;;15.57;67.21
27040;BME280;14589;51.578;7.306;2024-03-22T12:09:15;100964.72;;;15.41;67.20
27040;BME280;14589;51.578;7.306;2024-03-22T12:11:45;100954.31;;;15.28;68.60
27040;BME280;14589;51.578;7.306;2024-03-22T12:14:18;100959.13;;;15.10;68.99
27040;BME280;14589;51.578;7.306;2024-03-22T12:16:48;100963.16;;;15.38;68.35
27040;BME280;14589;51.578;7.306;2024-03-22T12:19:21;100957.19;;;15.43;68.48
27040;BME280;14589;51.578;7.306;2024-03-22T12:21:51;100960.84;;;14.78;69.68
27040;BME280;14589;51.578;7.306;2024-03-22T12:24:23;100961.19;;;14.67;70.54
27040;BME280;14589;51.578;7.306;2024-03-22T12:26:53;100969.38;;;14.75;70.81
27040;BME280;14589;51.578;7.306;2024-03-22T12:29:24;100952.66;;;14.86;69.77
27040;BME280;14589;51.578;7.306;2024-03-22T12:31:54;100959.97;;;14.94;69.74
27040;BME280;14589;51.578;7.306;2024-03-22T12:34:25;100953.50;;;14.95;69.42
27040;BME280;14589;51.578;7.306;2024-03-22T12:36:55;100950.09;;;14.93;69.77
27040;BME280;14589;51.578;7.306;2024-03-22T12:39:26;100949.91;;;14.94;70.58
27040;BME280;14589;51.578;7.306;2024-03-22T12:41:56;100954.00;;;14.82;71.47
27040;BME280;14589;51.578;7.306;2024-03-22T12:44:27;100961.34;;;14.90;71.62
27040;BME280;14589;51.578;7.306;2024-03-22T12:46:57;100952.97;;;14.75;72.61
27040;BME280;14589;51.578;7.306;2024-03-22T12:49:28;100943.78;;;14.68;74.18
27040;BME280;14589;51.578;7.306;2024-03-22T12:51:58;100946.16;;;14.63;73.24
27040;BME280;14589;51.578;7.306;2024-03-22T12:54:29;100941.19;;;14.50;74.21
27040;BME280;14589;51.578;7.306;2024-03-22T12:56:59;100941.22;;;14.58;74.59
27040;BME280;14589;51.578;7.306;2024-03-22T12:59:29;100937.13;;;14.54;73.38
27040;BME280;14589;51.578;7.306;2024-03-22T13:02:00;100927.72;;;14.57;73.41
27040;BME280;14589;51.578;7.306;2024-03-22T13:04:31;100933.69;;;14.52;73.74